sensor_id;sensor_type;location;lat;lon;timestamp;pressure;altitude;pressure_sealevel;temperature;humidity
13434;BME280;6789;47.678;9.158;2024-01-30T00:01:39;53521.94;;;-138.23;100.00
13434;BME280;6789;47.678;9.158;2024-01-30T00:06:30;53489.81;;;-138.23;100.00
13434;BME280;6789;47.678;9.158;2024-01-30T00:11:23;53479.78;;;-138.23;98.52
13434;BME280;6789;47.678;9.158;2024-01-30T00:16:24;53505.88;;;-138.23;98.00
13434;BME280;6789;47.678;9.158;2024-01-30T00:21:16;53503.88;;;-138.23;98.40
13434;BME280;6789;47.678;9.158;2024-01-30T00:26:08;53513.91;;;-138.23;97.33
13434;BME280;6789;47.678;9.158;2024-01-30T00:30:59;53511.91;;;-138.23;98.50
13434;BME280;6789;47.678;9.158;2024-01-30T00:35:51;53485.81;;;-138.23;99.50
13434;BME280;6789;47.678;9.158;2024-01-30T00:40:43;53477.78;;;-138.23;99.50
13434;BME280;6789;47.678;9.158;2024-01-30T00:45:35;53499.84;;;-138.23;99.08
13434;BME280;6789;47.678;9.158;2024-01-30T00:50:27;53505.88;;;-138.23;98.27
13434;BME280;6789;47.678;9.158;2024-01-30T00:55:19;53507.88;;;-138.23;98.26
13434;BME280;6789;47.678;9.158;2024-01-30T01:00:12;53487.81;;;-138.23;98.50
13434;BME280;6789;47.678;9.158;2024-01-30T01:05:04;53517.94;;;-138.23;98.23
13434;BME280;6789;47.678;9.158;2024-01-30T01:09:56;53505.88;;;-138.23;98.01
13434;BME280;6789;47.678;9.158;2024-01-30T01:14:48;53513.91;;;-138.23;97.88
13434;BME280;6789;47.678;9.158;2024-01-30T01:19:40;53521.94;;;-138.23;97.82
13434;BME280;6789;47.678;9.158;2024-01-30T01:24:32;53501.88;;;-138.23;98.72
13434;BME280;6789;47.678;9.158;2024-01-30T01:29:24;53534.00;;;-138.23;98.03
13434;BME280;6789;47.678;9.158;2024-01-30T01:34:20;53534.00;;;-138.23;98.87
13434;BME280;6789;47.678;9.158;2024-01-30T01:39:12;53493.84;;;-138.23;98.07
13434;BME280;6789;47.678;9.158;2024-01-30T01:44:04;53515.94;;;-138.23;96.73
13434;BME280;6789;47.678;9.158;2024-01-30T01:48:56;53513.91;;;-138.23;97.51
13434;BME280;6789;47.678;9.158;2024-01-30T01:53:49;53515.94;;;-138.23;98.19
13434;BME280;6789;47.678;9.158;2024-01-30T01:58:41;53517.94;;;-138.23;98.24
13434;BME280;6789;47.678;9.158;2024-01-30T02:03:34;53546.03;;;-138.23;98.21
13434;BME280;6789;47.678;9.158;2024-01-30T02:08:26;53483.78;;;-138.23;98.40
13434;BME280;6789;47.678;9.158;2024-01-30T02:13:18;53481.78;;;-138.23;98.19
13434;BME280;6789;47.678;9.158;2024-01-30T02:18:10;53558.09;;;-138.23;97.76
13434;BME280;6789;47.678;9.158;2024-01-30T02:23:02;53521.94;;;-138.23;97.13
13434;BME280;6789;47.678;9.158;2024-01-30T02:27:55;53527.97;;;-138.23;96.79
13434;BME280;6789;47.678;9.158;2024-01-30T02:32:47;53509.91;;;-138.23;95.84
13434;BME280;6789;47.678;9.158;2024-01-30T02:37:39;53517.94;;;-138.23;96.34
13434;BME280;6789;47.678;9.158;2024-01-30T02:42:30;53540.03;;;-138.23;96.71
13434;BME280;6789;47.678;9.158;2024-01-30T02:47:22;53509.91;;;-138.23;98.38
13434;BME280;6789;47.678;9.158;2024-01-30T02:52:14;53483.78;;;-138.23;97.80
13434;BME280;6789;47.678;9.158;2024-01-30T02:57:05;53521.94;;;-138.23;98.44
13434;BME280;6789;47.678;9.158;2024-01-30T03:01:57;53525.97;;;-138.23;98.80
13434;BME280;6789;47.678;9.158;2024-01-30T03:06:49;53529.97;;;-138.23;97.83
13434;BME280;6789;47.678;9.158;2024-01-30T03:11:41;53503.88;;;-138.23;98.36
13434;BME280;6789;47.678;9.158;2024-01-30T03:16:33;53501.88;;;-138.23;97.66
13434;BME280;6789;47.678;9.158;2024-01-30T03:21:25;53523.97;;;-138.23;98.30
13434;BME280;6789;47.678;9.158;2024-01-30T03:26:16;53497.84;;;-138.23;97.68
13434;BME280;6789;47.678;9.158;2024-01-30T03:31:08;53485.81;;;-138.23;97.34
13434;BME280;6789;47.678;9.158;2024-01-30T03:36:04;53523.97;;;-138.23;97.50
13434;BME280;6789;47.678;9.158;2024-01-30T03:40:56;53485.81;;;-138.23;97.40
13434;BME280;6789;47.678;9.158;2024-01-30T03:45:48;53517.94;;;-138.23;96.69
13434;BME280;6789;47.678;9.158;2024-01-30T03:50:40;53513.91;;;-138.23;96.98
13434;BME280;6789;47.678;9.158;2024-01-30T03:55:32;53497.84;;;-138.23;96.21
13434;BME280;6789;47.678;9.158;2024-01-30T04:00:24;53457.69;;;-138.23;96.52
13434;BME280;6789;47.678;9.158;2024-01-30T04:05:15;53481.78;;;-138.23;94.13
13434;BME280;6789;47.678;9.158;2024-01-30T04:10:09;53513.91;;;-138.23;95.15
13434;BME280;6789;47.678;9.158;2024-01-30T04:15:01;53485.81;;;-138.23;95.56
13434;BME280;6789;47.678;9.158;2024-01-30T04:19:54;53483.78;;;-138.23;95.37
13434;BME280;6789;47.678;9.158;2024-01-30T04:24:45;53534.00;;;-138.23;96.40
13434;BME280;6789;47.678;9.158;2024-01-30T04:29:37;53527.97;;;-138.23;95.58
13434;BME280;6789;47.678;9.158;2024-01-30T04:34:29;53525.97;;;-138.23;95.44
13434;BME280;6789;47.678;9.158;2024-01-30T04:39:21;53538.00;;;-138.23;95.55
13434;BME280;6789;47.678;9.158;2024-01-30T04:44:13;53525.97;;;-138.23;94.14
13434;BME280;6789;47.678;9.158;2024-01-30T04:49:05;53507.88;;;-138.23;93.54
13434;BME280;6789;47.678;9.158;2024-01-30T04:53:59;53519.94;;;-138.23;94.02
13434;BME280;6789;47.678;9.158;2024-01-30T04:58:51;53529.97;;;-138.23;93.82
13434;BME280;6789;47.678;9.158;2024-01-30T05:03:56;53525.97;;;-138.23;93.39
13434;BME280;6789;47.678;9.158;2024-01-30T05:08:48;53534.00;;;-138.23;91.13
13434;BME280;6789;47.678;9.158;2024-01-30T05:13:40;53566.13;;;-138.23;91.34
13434;BME280;6789;47.678;9.158;2024-01-30T05:18:32;53527.97;;;-138.23;93.10
13434;BME280;6789;47.678;9.158;2024-01-30T05:23:24;53509.91;;;-138.23;94.32
13434;BME280;6789;47.678;9.158;2024-01-30T05:28:15;53529.97;;;-138.23;95.04
13434;BME280;6789;47.678;9.158;2024-01-30T05:33:07;53491.81;;;-138.23;95.30
13434;BME280;6789;47.678;9.158;2024-01-30T05:37:59;53513.91;;;-138.23;95.35
13434;BME280;6789;47.678;9.158;2024-01-30T05:42:51;53538.00;;;-138.23;95.29
13434;BME280;6789;47.678;9.158;2024-01-30T05:47:43;53515.94;;;-138.23;95.75
13434;BME280;6789;47.678;9.158;2024-01-30T05:52:34;53485.81;;;-138.23;95.97
13434;BME280;6789;47.678;9.158;2024-01-30T05:57:26;53493.84;;;-138.23;96.66
13434;BME280;6789;47.678;9.158;2024-01-30T06:02:18;53546.03;;;-138.23;94.92
13434;BME280;6789;47.678;9.158;2024-01-30T06:07:10;53534.00;;;-138.23;95.45
13434;BME280;6789;47.678;9.158;2024-01-30T06:12:02;53546.03;;;-138.23;96.33
13434;BME280;6789;47.678;9.158;2024-01-30T06:16:54;53519.94;;;-138.23;97.26
13434;BME280;6789;47.678;9.158;2024-01-30T06:21:45;53534.00;;;-138.23;97.77
13434;BME280;6789;47.678;9.158;2024-01-30T06:26:37;53515.94;;;-138.23;97.48
13434;BME280;6789;47.678;9.158;2024-01-30T06:31:29;53544.03;;;-138.23;98.46
13434;BME280;6789;47.678;9.158;2024-01-30T06:36:21;53509.91;;;-138.23;99.00
13434;BME280;6789;47.678;9.158;2024-01-30T06:41:13;53542.03;;;-138.23;99.18
13434;BME280;6789;47.678;9.158;2024-01-30T06:46:05;53503.88;;;-138.23;99.48
13434;BME280;6789;47.678;9.158;2024-01-30T06:50:57;53483.78;;;-138.23;99.34
13434;BME280;6789;47.678;9.158;2024-01-30T06:55:49;53548.06;;;-138.23;99.21
13434;BME280;6789;47.678;9.158;2024-01-30T07:00:41;53532.00;;;-138.23;98.35
13434;BME280;6789;47.678;9.158;2024-01-30T07:05:33;53544.03;;;-138.23;98.33
13434;BME280;6789;47.678;9.158;2024-01-30T07:10:25;53525.97;;;-138.23;97.09
13434;BME280;6789;47.678;9.158;2024-01-30T07:15:17;53489.81;;;-138.23;97.17
13434;BME280;6789;47.678;9.158;2024-01-30T07:20:11;53509.91;;;-138.23;97.43
13434;BME280;6789;47.678;9.158;2024-01-30T07:25:08;53534.00;;;-138.23;96.46
13434;BME280;6789;47.678;9.158;2024-01-30T07:30:00;53519.94;;;-138.23;95.49
13434;BME280;6789;47.678;9.158;2024-01-30T07:34:52;53475.75;;;-138.23;94.39
13434;BME280;6789;47.678;9.158;2024-01-30T07:39:58;53521.94;;;-138.23;93.38
13434;BME280;6789;47.678;9.158;2024-01-30T07:44:50;53485.81;;;-138.23;92.35
13434;BME280;6789;47.678;9.158;2024-01-30T07:49:42;53499.84;;;-138.23;90.96
13434;BME280;6789;47.678;9.158;2024-01-30T07:54:34;53477.78;;;-138.23;90.56
13434;BME280;6789;47.678;9.158;2024-01-30T07:59:25;53497.84;;;-138.23;89.67
13434;BME280;6789;47.678;9.158;2024-01-30T08:04:17;53523.97;;;-138.23;89.95
13434;BME280;6789;47.678;9.158;2024-01-30T08:09:09;53481.78;;;-138.23;89.47
13434;BME280;6789;47.678;9.158;2024-01-30T08:14:02;53538.00;;;-138.23;89.30
13434;BME280;6789;47.678;9.158;2024-01-30T08:18:54;53503.88;;;-138.23;88.50
13434;BME280;6789;47.678;9.158;2024-01-30T08:23:49;53489.81;;;-138.23;88.31
13434;BME280;6789;47.678;9.158;2024-01-30T08:28:40;53527.97;;;-138.23;87.09
13434;BME280;6789;47.678;9.158;2024-01-30T08:33:40;53499.84;;;-138.23;87.61
13434;BME280;6789;47.678;9.158;2024-01-30T08:38:33;53493.84;;;-138.23;87.35
13434;BME280;6789;47.678;9.158;2024-01-30T08:43:25;53507.88;;;-138.23;87.79
13434;BME280;6789;47.678;9.158;2024-01-30T08:48:17;53471.75;;;-138.23;88.87
13434;BME280;6789;47.678;9.158;2024-01-30T08:53:09;53501.88;;;-138.23;87.89
13434;BME280;6789;47.678;9.158;2024-01-30T08:58:01;53497.84;;;-138.23;87.47
13434;BME280;6789;47.678;9.158;2024-01-30T09:02:55;53505.88;;;-138.23;85.83
13434;BME280;6789;47.678;9.158;2024-01-30T09:07:47;53509.91;;;-138.23;84.14
13434;BME280;6789;47.678;9.158;2024-01-30T09:12:39;53519.94;;;-138.23;83.06
13434;BME280;6789;47.678;9.158;2024-01-30T09:17:30;53463.72;;;-138.23;81.21
13434;BME280;6789;47.678;9.158;2024-01-30T09:22:22;53469.75;;;-138.23;80.44
13434;BME280;6789;47.678;9.158;2024-01-30T09:27:14;53459.69;;;-138.23;80.33
13434;BME280;6789;47.678;9.158;2024-01-30T09:32:06;53473.75;;;-138.23;78.73
13434;BME280;6789;47.678;9.158;2024-01-30T09:36:59;53511.91;;;-138.23;78.10
13434;BME280;6789;47.678;9.158;2024-01-30T09:42:19;53483.78;;;-138.23;78.75
13434;BME280;6789;47.678;9.158;2024-01-30T09:47:12;53495.84;;;-138.23;78.42
13434;BME280;6789;47.678;9.158;2024-01-30T09:52:06;53469.75;;;-138.23;78.29
13434;BME280;6789;47.678;9.158;2024-01-30T09:56:58;53451.66;;;-138.23;77.90
13434;BME280;6789;47.678;9.158;2024-01-30T10:01:51;53497.84;;;-138.23;78.80
13434;BME280;6789;47.678;9.158;2024-01-30T10:06:46;53481.78;;;-138.23;79.64
13434;BME280;6789;47.678;9.158;2024-01-30T10:11:38;53499.84;;;-138.23;78.61
13434;BME280;6789;47.678;9.158;2024-01-30T10:16:30;53485.81;;;-138.23;79.63
13434;BME280;6789;47.678;9.158;2024-01-30T10:21:23;53473.75;;;-138.23;78.48
13434;BME280;6789;47.678;9.158;2024-01-30T10:26:16;53501.88;;;-138.23;78.75
13434;BME280;6789;47.678;9.158;2024-01-30T10:31:09;53509.91;;;-138.23;78.73
13434;BME280;6789;47.678;9.158;2024-01-30T10:36:03;53479.78;;;-138.23;80.53
13434;BME280;6789;47.678;9.158;2024-01-30T10:41:01;53473.75;;;-138.23;80.04
13434;BME280;6789;47.678;9.158;2024-01-30T10:45:55;53445.63;;;-138.23;78.79
13434;BME280;6789;47.678;9.158;2024-01-30T10:50:50;53469.75;;;-138.23;79.82
13434;BME280;6789;47.678;9.158;2024-01-30T10:55:52;53483.78;;;-138.23;79.00
13434;BME280;6789;47.678;9.158;2024-01-30T11:00:46;53485.81;;;-138.23;78.40
13434;BME280;6789;47.678;9.158;2024-01-30T11:06:02;53473.75;;;-138.23;78.39
13434;BME280;6789;47.678;9.158;2024-01-30T11:10:57;53461.69;;;-138.23;78.44
13434;BME280;6789;47.678;9.158;2024-01-30T11:16:06;53479.78;;;-138.23;78.51
13434;BME280;6789;47.678;9.158;2024-01-30T11:21:33;53465.72;;;-138.23;76.92
13434;BME280;6789;47.678;9.158;2024-01-30T11:32:29;53449.66;;;-138.23;75.00
13434;BME280;6789;47.678;9.158;2024-01-30T11:42:43;53411.50;;;-138.23;73.03
13434;BME280;6789;47.678;9.158;2024-01-30T11:47:37;53449.66;;;-138.23;72.22
13434;BME280;6789;47.678;9.158;2024-01-30T11:52:44;53449.66;;;-138.23;71.68
13434;BME280;6789;47.678;9.158;2024-01-30T12:03:22;53441.63;;;-138.23;69.71
13434;BME280;6789;47.678;9.158;2024-01-30T12:08:18;53419.53;;;-138.23;70.13
13434;BME280;6789;47.678;9.158;2024-01-30T12:13:09;53401.47;;;-138.23;70.22
13434;BME280;6789;47.678;9.158;2024-01-30T12:18:06;53413.50;;;-138.23;69.87
13434;BME280;6789;47.678;9.158;2024-01-30T12:22:59;53387.41;;;-138.23;70.08
13434;BME280;6789;47.678;9.158;2024-01-30T12:27:51;53423.56;;;-138.23;69.71
13434;BME280;6789;47.678;9.158;2024-01-30T12:32:45;53415.53;;;-138.23;69.51
13434;BME280;6789;47.678;9.158;2024-01-30T12:37:38;53369.34;;;-138.23;69.31
13434;BME280;6789;47.678;9.158;2024-01-30T12:42:30;53409.50;;;-138.23;68.85
13434;BME280;6789;47.678;9.158;2024-01-30T12:47:22;53389.41;;;-138.23;68.85
13434;BME280;6789;47.678;9.158;2024-01-30T12:52:16;53389.41;;;-138.23;68.60
13434;BME280;6789;47.678;9.158;2024-01-30T12:57:09;53373.34;;;-138.23;67.92
13434;BME280;6789;47.678;9.158;2024-01-30T13:02:01;53411.50;;;-138.23;68.14
13434;BME280;6789;47.678;9.158;2024-01-30T13:06:56;53363.31;;;-138.23;68.21
13434;BME280;6789;47.678;9.158;2024-01-30T13:11:49;53385.41;;;-138.23;67.65
13434;BME280;6789;47.678;9.158;2024-01-30T13:16:41;53369.34;;;-138.23;68.01
13434;BME280;6789;47.678;9.158;2024-01-30T13:21:33;53397.44;;;-138.23;67.78
13434;BME280;6789;47.678;9.158;2024-01-30T13:26:24;53397.44;;;-138.23;68.13
13434;BME280;6789;47.678;9.158;2024-01-30T13:31:16;53399.44;;;-138.23;69.01
13434;BME280;6789;47.678;9.158;2024-01-30T13:36:10;53383.38;;;-138.23;70.37
13434;BME280;6789;47.678;9.158;2024-01-30T13:41:02;53393.44;;;-138.23;70.02
13434;BME280;6789;47.678;9.158;2024-01-30T13:45:54;53357.28;;;-138.23;69.93
13434;BME280;6789;47.678;9.158;2024-01-30T13:50:46;53371.34;;;-138.23;69.59
13434;BME280;6789;47.678;9.158;2024-01-30T13:55:38;53361.31;;;-138.23;69.34
13434;BME280;6789;47.678;9.158;2024-01-30T14:00:33;53383.38;;;-138.23;69.06
13434;BME280;6789;47.678;9.158;2024-01-30T14:05:28;53413.50;;;-138.23;68.52
13434;BME280;6789;47.678;9.158;2024-01-30T14:10:21;53403.47;;;-138.23;68.83
13434;BME280;6789;47.678;9.158;2024-01-30T14:15:12;53371.34;;;-138.23;69.27
13434;BME280;6789;47.678;9.158;2024-01-30T14:20:18;53387.41;;;-138.23;70.40
13434;BME280;6789;47.678;9.158;2024-01-30T14:25:10;53397.44;;;-138.23;72.53
13434;BME280;6789;47.678;9.158;2024-01-30T14:30:02;53405.47;;;-138.23;72.73
13434;BME280;6789;47.678;9.158;2024-01-30T14:34:57;53393.44;;;-138.23;72.89
13434;BME280;6789;47.678;9.158;2024-01-30T14:39:49;53399.44;;;-138.23;73.80
13434;BME280;6789;47.678;9.158;2024-01-30T14:44:42;53391.41;;;-138.23;74.40
13434;BME280;6789;47.678;9.158;2024-01-30T14:49:34;53381.38;;;-138.23;75.34
13434;BME280;6789;47.678;9.158;2024-01-30T14:54:26;53399.44;;;-138.23;75.57
13434;BME280;6789;47.678;9.158;2024-01-30T14:59:18;53401.47;;;-138.23;76.49
13434;BME280;6789;47.678;9.158;2024-01-30T15:04:10;53421.53;;;-138.23;78.24
13434;BME280;6789;47.678;9.158;2024-01-30T15:09:09;53389.41;;;-138.23;79.36
13434;BME280;6789;47.678;9.158;2024-01-30T15:14:01;53391.41;;;-138.23;80.56
13434;BME280;6789;47.678;9.158;2024-01-30T15:18:53;53367.31;;;-138.23;81.04
13434;BME280;6789;47.678;9.158;2024-01-30T15:23:45;53389.41;;;-138.23;81.52
13434;BME280;6789;47.678;9.158;2024-01-30T15:28:38;53393.44;;;-138.23;82.10
13434;BME280;6789;47.678;9.158;2024-01-30T15:33:32;53441.63;;;-138.23;84.46
13434;BME280;6789;47.678;9.158;2024-01-30T15:38:24;53471.75;;;-138.23;86.63
13434;BME280;6789;47.678;9.158;2024-01-30T15:43:15;53431.59;;;-138.23;88.03
13434;BME280;6789;47.678;9.158;2024-01-30T15:48:07;53473.75;;;-138.23;88.41
13434;BME280;6789;47.678;9.158;2024-01-30T15:53:00;53459.69;;;-138.23;89.79
13434;BME280;6789;47.678;9.158;2024-01-30T15:57:52;53453.66;;;-138.23;91.17
13434;BME280;6789;47.678;9.158;2024-01-30T16:02:51;53457.69;;;-138.23;91.19
13434;BME280;6789;47.678;9.158;2024-01-30T16:08:03;53441.63;;;-138.23;92.48
13434;BME280;6789;47.678;9.158;2024-01-30T16:18:28;53439.63;;;-138.23;93.67
13434;BME280;6789;47.678;9.158;2024-01-30T16:23:22;53451.66;;;-138.23;95.12
13434;BME280;6789;47.678;9.158;2024-01-30T16:28:14;53429.56;;;-138.23;95.16
13434;BME280;6789;47.678;9.158;2024-01-30T16:33:06;53461.69;;;-138.23;95.47
13434;BME280;6789;47.678;9.158;2024-01-30T16:37:58;53493.84;;;-138.23;95.02
13434;BME280;6789;47.678;9.158;2024-01-30T16:42:50;53485.81;;;-138.23;95.47
13434;BME280;6789;47.678;9.158;2024-01-30T16:47:42;53473.75;;;-138.23;94.81
13434;BME280;6789;47.678;9.158;2024-01-30T16:52:36;53453.66;;;-138.23;94.77
13434;BME280;6789;47.678;9.158;2024-01-30T16:57:42;53485.81;;;-138.23;96.36
13434;BME280;6789;47.678;9.158;2024-01-30T17:02:34;53425.56;;;-138.23;97.49
13434;BME280;6789;47.678;9.158;2024-01-30T17:07:41;53465.72;;;-138.23;98.49
13434;BME280;6789;47.678;9.158;2024-01-30T17:12:34;53487.81;;;-138.23;99.48
13434;BME280;6789;47.678;9.158;2024-01-30T17:17:26;53453.66;;;-138.23;100.00
13434;BME280;6789;47.678;9.158;2024-01-30T17:22:52;53465.72;;;-138.23;100.00
13434;BME280;6789;47.678;9.158;2024-01-30T17:27:44;53497.84;;;-138.23;100.00
13434;BME280;6789;47.678;9.158;2024-01-30T17:32:36;53455.69;;;-138.23;100.00
13434;BME280;6789;47.678;9.158;2024-01-30T17:37:28;53479.78;;;-138.23;100.00
13434;BME280;6789;47.678;9.158;2024-01-30T17:42:20;53425.56;;;-138.23;100.00
13434;BME280;6789;47.678;9.158;2024-01-30T17:47:13;53427.56;;;-138.23;100.00
13434;BME280;6789;47.678;9.158;2024-01-30T17:52:06;53469.75;;;-138.23;99.88
13434;BME280;6789;47.678;9.158;2024-01-30T17:56:59;53491.81;;;-138.23;99.53
13434;BME280;6789;47.678;9.158;2024-01-30T18:01:51;53461.69;;;-138.23;99.56
13434;BME280;6789;47.678;9.158;2024-01-30T18:06:51;53481.78;;;-138.23;99.12
13434;BME280;6789;47.678;9.158;2024-01-30T18:11:43;53477.78;;;-138.23;98.57
13434;BME280;6789;47.678;9.158;2024-01-30T18:16:35;53453.66;;;-138.23;97.60
13434;BME280;6789;47.678;9.158;2024-01-30T18:21:27;53465.72;;;-138.23;97.29
13434;BME280;6789;47.678;9.158;2024-01-30T18:26:19;53451.66;;;-138.23;97.02
13434;BME280;6789;47.678;9.158;2024-01-30T18:31:15;53453.66;;;-138.23;96.78
13434;BME280;6789;47.678;9.158;2024-01-30T18:36:22;53471.75;;;-138.23;96.72
13434;BME280;6789;47.678;9.158;2024-01-30T18:41:15;53465.72;;;-138.23;96.85
13434;BME280;6789;47.678;9.158;2024-01-30T18:46:08;53453.66;;;-138.23;96.32
13434;BME280;6789;47.678;9.158;2024-01-30T18:51:01;53461.69;;;-138.23;96.55
13434;BME280;6789;47.678;9.158;2024-01-30T18:55:53;53457.69;;;-138.23;96.49
13434;BME280;6789;47.678;9.158;2024-01-30T19:00:45;53441.63;;;-138.23;96.29
13434;BME280;6789;47.678;9.158;2024-01-30T19:10:47;53487.81;;;-138.23;95.89
13434;BME280;6789;47.678;9.158;2024-01-30T19:15:41;53463.72;;;-138.23;95.41
13434;BME280;6789;47.678;9.158;2024-01-30T19:20:35;53473.75;;;-138.23;94.59
13434;BME280;6789;47.678;9.158;2024-01-30T19:25:26;53469.75;;;-138.23;93.18
13434;BME280;6789;47.678;9.158;2024-01-30T19:30:18;53445.63;;;-138.23;93.09
13434;BME280;6789;47.678;9.158;2024-01-30T19:35:11;53463.72;;;-138.23;92.85
13434;BME280;6789;47.678;9.158;2024-01-30T19:40:06;53459.69;;;-138.23;92.27
13434;BME280;6789;47.678;9.158;2024-01-30T19:45:27;53485.81;;;-138.23;91.75
13434;BME280;6789;47.678;9.158;2024-01-30T19:50:19;53473.75;;;-138.23;91.01
13434;BME280;6789;47.678;9.158;2024-01-30T19:55:10;53491.81;;;-138.23;91.03
13434;BME280;6789;47.678;9.158;2024-01-30T20:00:03;53485.81;;;-138.23;91.10
13434;BME280;6789;47.678;9.158;2024-01-30T20:04:55;53491.81;;;-138.23;90.96
13434;BME280;6789;47.678;9.158;2024-01-30T20:09:50;53451.66;;;-138.23;91.01
13434;BME280;6789;47.678;9.158;2024-01-30T20:14:56;53415.53;;;-138.23;91.46
13434;BME280;6789;47.678;9.158;2024-01-30T20:19:49;53469.75;;;-138.23;92.41
13434;BME280;6789;47.678;9.158;2024-01-30T20:24:44;53471.75;;;-138.23;92.97
13434;BME280;6789;47.678;9.158;2024-01-30T20:29:41;53453.66;;;-138.23;93.92
13434;BME280;6789;47.678;9.158;2024-01-30T20:34:47;53481.78;;;-138.23;94.01
13434;BME280;6789;47.678;9.158;2024-01-30T20:39:39;53421.53;;;-138.23;94.19
13434;BME280;6789;47.678;9.158;2024-01-30T20:44:32;53481.78;;;-138.23;94.13
13434;BME280;6789;47.678;9.158;2024-01-30T20:49:38;53435.59;;;-138.23;94.16
13434;BME280;6789;47.678;9.158;2024-01-30T20:54:30;53489.81;;;-138.23;93.82
13434;BME280;6789;47.678;9.158;2024-01-30T20:59:22;53445.63;;;-138.23;93.67
13434;BME280;6789;47.678;9.158;2024-01-30T21:04:14;53481.78;;;-138.23;93.58
13434;BME280;6789;47.678;9.158;2024-01-30T21:09:06;53473.75;;;-138.23;93.55
13434;BME280;6789;47.678;9.158;2024-01-30T21:13:58;53469.75;;;-138.23;93.09
13434;BME280;6789;47.678;9.158;2024-01-30T21:18:50;53435.59;;;-138.23;92.77
13434;BME280;6789;47.678;9.158;2024-01-30T21:23:42;53457.69;;;-138.23;92.27
13434;BME280;6789;47.678;9.158;2024-01-30T21:28:35;53461.69;;;-138.23;93.07
13434;BME280;6789;47.678;9.158;2024-01-30T21:33:27;53457.69;;;-138.23;93.48
13434;BME280;6789;47.678;9.158;2024-01-30T21:38:19;53459.69;;;-138.23;93.70
13434;BME280;6789;47.678;9.158;2024-01-30T21:43:11;53491.81;;;-138.23;94.04
13434;BME280;6789;47.678;9.158;2024-01-30T21:48:06;53501.88;;;-138.23;93.35
13434;BME280;6789;47.678;9.158;2024-01-30T21:53:12;53469.75;;;-138.23;93.24
13434;BME280;6789;47.678;9.158;2024-01-30T21:58:04;53455.69;;;-138.23;94.03
13434;BME280;6789;47.678;9.158;2024-01-30T22:02:56;53519.94;;;-138.23;94.68
13434;BME280;6789;47.678;9.158;2024-01-30T22:07:49;53457.69;;;-138.23;95.66
13434;BME280;6789;47.678;9.158;2024-01-30T22:12:56;53469.75;;;-138.23;96.92
13434;BME280;6789;47.678;9.158;2024-01-30T22:17:48;53459.69;;;-138.23;97.71
13434;BME280;6789;47.678;9.158;2024-01-30T22:22:40;53439.63;;;-138.23;98.40
13434;BME280;6789;47.678;9.158;2024-01-30T22:27:32;53473.75;;;-138.23;98.61
13434;BME280;6789;47.678;9.158;2024-01-30T22:32:24;53475.75;;;-138.23;99.05
13434;BME280;6789;47.678;9.158;2024-01-30T22:37:15;53477.78;;;-138.23;99.18
13434;BME280;6789;47.678;9.158;2024-01-30T22:42:07;53465.72;;;-138.23;99.69
13434;BME280;6789;47.678;9.158;2024-01-30T22:47:00;53469.75;;;-138.23;99.94
13434;BME280;6789;47.678;9.158;2024-01-30T22:51:51;53475.75;;;-138.23;100.00
13434;BME280;6789;47.678;9.158;2024-01-30T22:56:45;53433.59;;;-138.23;100.00
13434;BME280;6789;47.678;9.158;2024-01-30T23:01:39;53485.81;;;-138.23;100.00
13434;BME280;6789;47.678;9.158;2024-01-30T23:06:46;53493.84;;;-138.23;100.00
13434;BME280;6789;47.678;9.158;2024-01-30T23:11:37;53477.78;;;-138.23;100.00
13434;BME280;6789;47.678;9.158;2024-01-30T23:16:29;53521.94;;;-138.23;100.00
13434;BME280;6789;47.678;9.158;2024-01-30T23:21:21;53493.84;;;-138.23;100.00
13434;BME280;6789;47.678;9.158;2024-01-30T23:26:13;53479.78;;;-138.23;100.00
13434;BME280;6789;47.678;9.158;2024-01-30T23:31:08;53469.75;;;-138.23;100.00
13434;BME280;6789;47.678;9.158;2024-01-30T23:36:00;53473.75;;;-138.23;100.00
13434;BME280;6789;47.678;9.158;2024-01-30T23:40:52;53469.75;;;-138.23;100.00
13434;BME280;6789;47.678;9.158;2024-01-30T23:45:44;53451.66;;;-138.23;100.00
13434;BME280;6789;47.678;9.158;2024-01-30T23:50:36;53481.78;;;-138.23;100.00
13434;BME280;6789;47.678;9.158;2024-01-30T23:55:27;53479.78;;;-138.23;100.00
